sensor_id;sensor_type;location;lat;lon;timestamp;temperature;humidity
1381;DHT22;684;48.342;10.096;2023-04-19T00:01:39;10.30;35.90
1381;DHT22;684;48.342;10.096;2023-04-19T00:04:07;10.30;35.80
1381;DHT22;684;48.342;10.096;2023-04-19T00:06:34;10.30;35.70
1381;DHT22;684;48.342;10.096;2023-04-19T00:09:02;10.30;35.70
1381;DHT22;684;48.342;10.096;2023-04-19T00:11:29;10.30;35.90
1381;DHT22;684;48.342;10.096;2023-04-19T00:13:55;10.30;35.80
1381;DHT22;684;48.342;10.096;2023-04-19T00:16:22;10.30;35.80
1381;DHT22;684;48.342;10.096;2023-04-19T00:18:49;10.30;35.90
1381;DHT22;684;48.342;10.096;2023-04-19T00:21:17;10.30;35.80
1381;DHT22;684;48.342;10.096;2023-04-19T00:23:44;10.30;35.90
1381;DHT22;684;48.342;10.096;2023-04-19T00:26:10;10.30;35.70
1381;DHT22;684;48.342;10.096;2023-04-19T00:28:40;10.30;35.90
1381;DHT22;684;48.342;10.096;2023-04-19T00:31:06;10.30;35.80
1381;DHT22;684;48.342;10.096;2023-04-19T00:33:33;10.30;35.80
1381;DHT22;684;48.342;10.096;2023-04-19T00:36:00;10.30;35.70
1381;DHT22;684;48.342;10.096;2023-04-19T00:38:28;10.30;35.90
1381;DHT22;684;48.342;10.096;2023-04-19T00:40:55;10.30;35.90
1381;DHT22;684;48.342;10.096;2023-04-19T00:43:22;10.30;35.80
1381;DHT22;684;48.342;10.096;2023-04-19T00:45:48;10.30;36.00
1381;DHT22;684;48.342;10.096;2023-04-19T00:48:15;10.20;36.10
1381;DHT22;684;48.342;10.096;2023-04-19T00:50:43;10.30;36.10
1381;DHT22;684;48.342;10.096;2023-04-19T00:53:10;10.30;36.20
1381;DHT22;684;48.342;10.096;2023-04-19T00:55:39;10.30;36.20
1381;DHT22;684;48.342;10.096;2023-04-19T00:58:06;10.30;36.20
1381;DHT22;684;48.342;10.096;2023-04-19T01:00:33;10.20;36.10
1381;DHT22;684;48.342;10.096;2023-04-19T01:03:00;10.20;36.30
1381;DHT22;684;48.342;10.096;2023-04-19T01:05:28;10.20;36.30
1381;DHT22;684;48.342;10.096;2023-04-19T01:07:55;10.20;36.20
1381;DHT22;684;48.342;10.096;2023-04-19T01:10:22;10.20;36.40
1381;DHT22;684;48.342;10.096;2023-04-19T01:12:50;10.20;36.40
1381;DHT22;684;48.342;10.096;2023-04-19T01:15:16;10.20;36.30
1381;DHT22;684;48.342;10.096;2023-04-19T01:17:43;10.20;36.40
1381;DHT22;684;48.342;10.096;2023-04-19T01:20:10;10.20;36.30
1381;DHT22;684;48.342;10.096;2023-04-19T01:22:39;10.20;36.40
1381;DHT22;684;48.342;10.096;2023-04-19T01:25:06;10.20;36.30
1381;DHT22;684;48.342;10.096;2023-04-19T01:27:34;10.20;36.30
1381;DHT22;684;48.342;10.096;2023-04-19T01:30:00;10.20;36.40
1381;DHT22;684;48.342;10.096;2023-04-19T01:32:27;10.20;36.40
1381;DHT22;684;48.342;10.096;2023-04-19T01:34:54;10.20;36.30
1381;DHT22;684;48.342;10.096;2023-04-19T01:37:21;10.20;36.30
1381;DHT22;684;48.342;10.096;2023-04-19T01:39:49;10.20;36.40
1381;DHT22;684;48.342;10.096;2023-04-19T01:42:15;10.20;36.40
1381;DHT22;684;48.342;10.096;2023-04-19T01:44:42;10.20;36.40
1381;DHT22;684;48.342;10.096;2023-04-19T01:47:09;10.20;36.50
1381;DHT22;684;48.342;10.096;2023-04-19T01:49:36;10.20;36.40
1381;DHT22;684;48.342;10.096;2023-04-19T01:52:02;10.20;36.50
1381;DHT22;684;48.342;10.096;2023-04-19T01:54:29;10.20;36.50
1381;DHT22;684;48.342;10.096;2023-04-19T01:56:58;10.20;36.50
1381;DHT22;684;48.342;10.096;2023-04-19T01:59:24;10.20;36.30
1381;DHT22;684;48.342;10.096;2023-04-19T02:01:51;10.20;36.40
1381;DHT22;684;48.342;10.096;2023-04-19T02:04:19;10.20;36.50
1381;DHT22;684;48.342;10.096;2023-04-19T02:06:46;10.10;36.60
1381;DHT22;684;48.342;10.096;2023-04-19T02:09:13;10.10;36.60
1381;DHT22;684;48.342;10.096;2023-04-19T02:11:39;10.10;36.80
1381;DHT22;684;48.342;10.096;2023-04-19T02:14:07;10.10;36.90
1381;DHT22;684;48.342;10.096;2023-04-19T02:16:34;10.00;36.70
1381;DHT22;684;48.342;10.096;2023-04-19T02:19:01;10.10;37.00
1381;DHT22;684;48.342;10.096;2023-04-19T02:21:27;10.10;37.00
1381;DHT22;684;48.342;10.096;2023-04-19T02:23:54;10.00;37.00
1381;DHT22;684;48.342;10.096;2023-04-19T02:26:21;10.00;37.80
1381;DHT22;684;48.342;10.096;2023-04-19T02:28:49;10.10;37.10
1381;DHT22;684;48.342;10.096;2023-04-19T02:31:18;10.00;37.10
1381;DHT22;684;48.342;10.096;2023-04-19T02:33:45;10.00;37.20
1381;DHT22;684;48.342;10.096;2023-04-19T02:36:12;10.00;37.30
1381;DHT22;684;48.342;10.096;2023-04-19T02:38:39;10.00;37.30
1381;DHT22;684;48.342;10.096;2023-04-19T02:41:06;10.00;37.40
1381;DHT22;684;48.342;10.096;2023-04-19T02:43:33;10.00;37.30
1381;DHT22;684;48.342;10.096;2023-04-19T02:46:00;10.00;37.30
1381;DHT22;684;48.342;10.096;2023-04-19T02:48:28;10.00;37.20
1381;DHT22;684;48.342;10.096;2023-04-19T02:50:55;10.00;37.20
1381;DHT22;684;48.342;10.096;2023-04-19T02:53:21;9.90;37.40
1381;DHT22;684;48.342;10.096;2023-04-19T02:55:48;9.90;37.40
1381;DHT22;684;48.342;10.096;2023-04-19T02:58:15;9.90;37.40
1381;DHT22;684;48.342;10.096;2023-04-19T03:00:42;9.90;37.50
1381;DHT22;684;48.342;10.096;2023-04-19T03:03:08;9.90;37.40
1381;DHT22;684;48.342;10.096;2023-04-19T03:05:37;9.90;37.50
1381;DHT22;684;48.342;10.096;2023-04-19T03:08:03;9.90;37.60
1381;DHT22;684;48.342;10.096;2023-04-19T03:10:30;9.90;37.40
1381;DHT22;684;48.342;10.096;2023-04-19T03:12:57;9.90;37.30
1381;DHT22;684;48.342;10.096;2023-04-19T03:15:24;9.90;37.30
1381;DHT22;684;48.342;10.096;2023-04-19T03:17:50;9.90;37.30
1381;DHT22;684;48.342;10.096;2023-04-19T03:20:17;9.80;37.30
1381;DHT22;684;48.342;10.096;2023-04-19T03:22:46;9.80;37.40
1381;DHT22;684;48.342;10.096;2023-04-19T03:25:13;9.80;37.50
1381;DHT22;684;48.342;10.096;2023-04-19T03:27:40;9.80;37.40
1381;DHT22;684;48.342;10.096;2023-04-19T03:30:10;9.70;37.60
1381;DHT22;684;48.342;10.096;2023-04-19T03:32:37;9.80;37.70
1381;DHT22;684;48.342;10.096;2023-04-19T03:35:05;9.70;37.70
1381;DHT22;684;48.342;10.096;2023-04-19T03:37:32;9.70;37.70
1381;DHT22;684;48.342;10.096;2023-04-19T03:40:00;9.70;37.70
1381;DHT22;684;48.342;10.096;2023-04-19T03:42:26;9.70;37.80
1381;DHT22;684;48.342;10.096;2023-04-19T03:44:53;9.70;37.70
1381;DHT22;684;48.342;10.096;2023-04-19T03:47:20;9.80;37.80
1381;DHT22;684;48.342;10.096;2023-04-19T03:49:47;9.80;37.50
1381;DHT22;684;48.342;10.096;2023-04-19T03:52:13;9.80;37.50
1381;DHT22;684;48.342;10.096;2023-04-19T03:54:40;9.80;37.40
1381;DHT22;684;48.342;10.096;2023-04-19T03:57:09;9.80;37.50
1381;DHT22;684;48.342;10.096;2023-04-19T03:59:38;9.80;37.50
1381;DHT22;684;48.342;10.096;2023-04-19T04:02:05;9.80;37.50
1381;DHT22;684;48.342;10.096;2023-04-19T04:04:31;9.80;37.60
1381;DHT22;684;48.342;10.096;2023-04-19T04:06:58;9.80;37.60
1381;DHT22;684;48.342;10.096;2023-04-19T04:09:25;9.80;37.50
1381;DHT22;684;48.342;10.096;2023-04-19T04:11:52;9.80;37.40
1381;DHT22;684;48.342;10.096;2023-04-19T04:14:20;9.80;37.40
1381;DHT22;684;48.342;10.096;2023-04-19T04:16:47;9.80;37.50
1381;DHT22;684;48.342;10.096;2023-04-19T04:19:13;9.80;37.50
1381;DHT22;684;48.342;10.096;2023-04-19T04:21:40;9.80;37.60
1381;DHT22;684;48.342;10.096;2023-04-19T04:24:07;9.80;37.50
1381;DHT22;684;48.342;10.096;2023-04-19T04:26:34;9.70;37.50
1381;DHT22;684;48.342;10.096;2023-04-19T04:29:03;9.80;37.50
1381;DHT22;684;48.342;10.096;2023-04-19T04:31:31;9.70;37.60
1381;DHT22;684;48.342;10.096;2023-04-19T04:34:00;9.70;37.60
1381;DHT22;684;48.342;10.096;2023-04-19T04:36:27;9.70;37.70
1381;DHT22;684;48.342;10.096;2023-04-19T04:38:55;9.70;37.70
1381;DHT22;684;48.342;10.096;2023-04-19T04:41:22;9.70;37.50
1381;DHT22;684;48.342;10.096;2023-04-19T04:43:49;9.70;37.40
1381;DHT22;684;48.342;10.096;2023-04-19T04:46:17;9.70;37.40
1381;DHT22;684;48.342;10.096;2023-04-19T04:48:46;9.70;37.40
1381;DHT22;684;48.342;10.096;2023-04-19T04:51:12;9.80;37.40
1381;DHT22;684;48.342;10.096;2023-04-19T04:53:39;9.80;37.40
1381;DHT22;684;48.342;10.096;2023-04-19T04:56:06;9.80;37.40
1381;DHT22;684;48.342;10.096;2023-04-19T04:58:32;9.80;37.30
1381;DHT22;684;48.342;10.096;2023-04-19T05:00:59;9.90;37.40
1381;DHT22;684;48.342;10.096;2023-04-19T05:03:26;9.90;37.30
1381;DHT22;684;48.342;10.096;2023-04-19T05:05:54;9.90;37.30
1381;DHT22;684;48.342;10.096;2023-04-19T05:08:21;9.90;37.20
1381;DHT22;684;48.342;10.096;2023-04-19T05:10:47;9.90;37.60
1381;DHT22;684;48.342;10.096;2023-04-19T05:13:14;10.00;37.00
1381;DHT22;684;48.342;10.096;2023-04-19T05:15:41;10.00;36.90
1381;DHT22;684;48.342;10.096;2023-04-19T05:18:08;10.00;36.80
1381;DHT22;684;48.342;10.096;2023-04-19T05:20:34;10.00;36.70
1381;DHT22;684;48.342;10.096;2023-04-19T05:23:02;10.00;36.60
1381;DHT22;684;48.342;10.096;2023-04-19T05:25:29;10.10;36.60
1381;DHT22;684;48.342;10.096;2023-04-19T05:27:56;10.10;36.60
1381;DHT22;684;48.342;10.096;2023-04-19T05:30:23;10.10;36.60
1381;DHT22;684;48.342;10.096;2023-04-19T05:32:50;10.10;36.50
1381;DHT22;684;48.342;10.096;2023-04-19T05:35:17;10.10;36.50
1381;DHT22;684;48.342;10.096;2023-04-19T05:37:43;10.10;36.40
1381;DHT22;684;48.342;10.096;2023-04-19T05:40:12;10.10;36.30
1381;DHT22;684;48.342;10.096;2023-04-19T05:42:39;10.10;36.20
1381;DHT22;684;48.342;10.096;2023-04-19T05:45:06;10.10;36.00
1381;DHT22;684;48.342;10.096;2023-04-19T05:47:33;10.10;36.00
1381;DHT22;684;48.342;10.096;2023-04-19T05:50:00;10.00;36.00
1381;DHT22;684;48.342;10.096;2023-04-19T05:52:27;10.00;36.60
1381;DHT22;684;48.342;10.096;2023-04-19T05:54:54;10.00;36.00
1381;DHT22;684;48.342;10.096;2023-04-19T05:57:22;10.00;36.10
1381;DHT22;684;48.342;10.096;2023-04-19T05:59:48;9.90;36.30
1381;DHT22;684;48.342;10.096;2023-04-19T06:02:15;9.90;36.40
1381;DHT22;684;48.342;10.096;2023-04-19T06:04:42;9.90;36.20
1381;DHT22;684;48.342;10.096;2023-04-19T06:07:08;9.90;36.30
1381;DHT22;684;48.342;10.096;2023-04-19T06:09:35;9.90;36.40
1381;DHT22;684;48.342;10.096;2023-04-19T06:12:02;9.90;36.30
1381;DHT22;684;48.342;10.096;2023-04-19T06:14:31;9.90;36.20
1381;DHT22;684;48.342;10.096;2023-04-19T06:16:57;10.00;36.10
1381;DHT22;684;48.342;10.096;2023-04-19T06:19:24;10.00;36.10
1381;DHT22;684;48.342;10.096;2023-04-19T06:21:51;10.00;36.00
1381;DHT22;684;48.342;10.096;2023-04-19T06:24:18;10.00;36.20
1381;DHT22;684;48.342;10.096;2023-04-19T06:26:45;10.00;36.20
1381;DHT22;684;48.342;10.096;2023-04-19T06:29:12;10.00;36.20
1381;DHT22;684;48.342;10.096;2023-04-19T06:31:40;10.10;36.20
1381;DHT22;684;48.342;10.096;2023-04-19T06:34:07;10.10;36.10
1381;DHT22;684;48.342;10.096;2023-04-19T06:36:35;10.10;36.50
1381;DHT22;684;48.342;10.096;2023-04-19T06:39:02;10.10;35.90
1381;DHT22;684;48.342;10.096;2023-04-19T06:41:29;10.20;35.80
1381;DHT22;684;48.342;10.096;2023-04-19T06:43:56;10.20;35.70
1381;DHT22;684;48.342;10.096;2023-04-19T06:46:23;10.30;35.70
1381;DHT22;684;48.342;10.096;2023-04-19T06:48:53;10.30;35.40
1381;DHT22;684;48.342;10.096;2023-04-19T06:51:20;10.30;35.50
1381;DHT22;684;48.342;10.096;2023-04-19T06:53:46;10.40;35.20
1381;DHT22;684;48.342;10.096;2023-04-19T06:56:14;10.40;35.00
1381;DHT22;684;48.342;10.096;2023-04-19T06:58:41;10.40;34.90
1381;DHT22;684;48.342;10.096;2023-04-19T07:01:08;10.40;34.90
1381;DHT22;684;48.342;10.096;2023-04-19T07:03:35;10.40;34.80
1381;DHT22;684;48.342;10.096;2023-04-19T07:06:03;10.40;34.80
1381;DHT22;684;48.342;10.096;2023-04-19T07:08:30;10.50;34.70
1381;DHT22;684;48.342;10.096;2023-04-19T07:10:57;10.50;34.60
1381;DHT22;684;48.342;10.096;2023-04-19T07:13:23;10.50;34.50
1381;DHT22;684;48.342;10.096;2023-04-19T07:15:50;10.60;34.10
1381;DHT22;684;48.342;10.096;2023-04-19T07:18:17;10.60;34.00
1381;DHT22;684;48.342;10.096;2023-04-19T07:20:43;10.60;33.70
1381;DHT22;684;48.342;10.096;2023-04-19T07:23:14;10.60;33.40
1381;DHT22;684;48.342;10.096;2023-04-19T07:25:41;10.60;33.30
1381;DHT22;684;48.342;10.096;2023-04-19T07:28:08;10.60;33.10
1381;DHT22;684;48.342;10.096;2023-04-19T07:30:35;10.60;32.60
1381;DHT22;684;48.342;10.096;2023-04-19T07:33:02;10.60;32.40
1381;DHT22;684;48.342;10.096;2023-04-19T07:35:29;10.60;32.60
1381;DHT22;684;48.342;10.096;2023-04-19T07:37:56;10.60;32.50
1381;DHT22;684;48.342;10.096;2023-04-19T07:40:24;10.60;32.30
1381;DHT22;684;48.342;10.096;2023-04-19T07:42:54;10.70;32.40
1381;DHT22;684;48.342;10.096;2023-04-19T07:45:21;10.70;32.30
1381;DHT22;684;48.342;10.096;2023-04-19T07:47:47;10.80;32.20
1381;DHT22;684;48.342;10.096;2023-04-19T07:50:14;10.90;32.10
1381;DHT22;684;48.342;10.096;2023-04-19T07:52:41;11.00;31.80
1381;DHT22;684;48.342;10.096;2023-04-19T07:55:08;11.00;31.50
1381;DHT22;684;48.342;10.096;2023-04-19T07:57:36;11.10;31.40
1381;DHT22;684;48.342;10.096;2023-04-19T08:00:04;11.20;31.20
1381;DHT22;684;48.342;10.096;2023-04-19T08:02:31;11.20;31.00
1381;DHT22;684;48.342;10.096;2023-04-19T08:04:57;11.40;30.60
1381;DHT22;684;48.342;10.096;2023-04-19T08:07:24;11.50;30.30
1381;DHT22;684;48.342;10.096;2023-04-19T08:09:51;11.60;29.80
1381;DHT22;684;48.342;10.096;2023-04-19T08:12:17;11.60;29.50
1381;DHT22;684;48.342;10.096;2023-04-19T08:14:45;11.70;29.60
1381;DHT22;684;48.342;10.096;2023-04-19T08:17:13;11.70;29.30
1381;DHT22;684;48.342;10.096;2023-04-19T08:19:40;11.80;28.40
1381;DHT22;684;48.342;10.096;2023-04-19T08:22:07;11.90;28.40
1381;DHT22;684;48.342;10.096;2023-04-19T08:24:34;11.90;27.60
1381;DHT22;684;48.342;10.096;2023-04-19T08:27:01;12.00;27.50
1381;DHT22;684;48.342;10.096;2023-04-19T08:29:28;12.10;26.90
1381;DHT22;684;48.342;10.096;2023-04-19T08:31:56;12.20;26.90
1381;DHT22;684;48.342;10.096;2023-04-19T08:34:22;12.20;26.50
1381;DHT22;684;48.342;10.096;2023-04-19T08:36:49;12.30;27.10
1381;DHT22;684;48.342;10.096;2023-04-19T08:39:16;12.30;26.50
1381;DHT22;684;48.342;10.096;2023-04-19T08:41:43;12.40;26.50
1381;DHT22;684;48.342;10.096;2023-04-19T08:44:11;12.50;26.20
1381;DHT22;684;48.342;10.096;2023-04-19T08:46:38;12.60;25.80
1381;DHT22;684;48.342;10.096;2023-04-19T08:49:07;12.80;25.30
1381;DHT22;684;48.342;10.096;2023-04-19T08:51:36;13.00;24.20
1381;DHT22;684;48.342;10.096;2023-04-19T08:54:04;13.10;24.10
1381;DHT22;684;48.342;10.096;2023-04-19T08:56:32;13.30;23.60
1381;DHT22;684;48.342;10.096;2023-04-19T08:58:59;13.70;23.40
1381;DHT22;684;48.342;10.096;2023-04-19T09:01:25;14.50;22.40
1381;DHT22;684;48.342;10.096;2023-04-19T09:03:52;15.00;20.10
1381;DHT22;684;48.342;10.096;2023-04-19T09:06:20;15.30;18.80
1381;DHT22;684;48.342;10.096;2023-04-19T09:08:47;15.50;17.30
1381;DHT22;684;48.342;10.096;2023-04-19T09:11:15;15.70;17.40
1381;DHT22;684;48.342;10.096;2023-04-19T09:13:42;16.00;17.10
1381;DHT22;684;48.342;10.096;2023-04-19T09:16:22;16.20;16.20
1381;DHT22;684;48.342;10.096;2023-04-19T09:18:56;16.30;15.70
1381;DHT22;684;48.342;10.096;2023-04-19T09:21:29;16.40;15.70
1381;DHT22;684;48.342;10.096;2023-04-19T09:23:56;16.40;15.10
1381;DHT22;684;48.342;10.096;2023-04-19T09:26:23;16.30;15.10
1381;DHT22;684;48.342;10.096;2023-04-19T09:28:58;16.30;15.10
1381;DHT22;684;48.342;10.096;2023-04-19T09:31:26;16.30;15.00
1381;DHT22;684;48.342;10.096;2023-04-19T09:33:54;16.20;15.20
1381;DHT22;684;48.342;10.096;2023-04-19T09:36:37;16.00;15.00
1381;DHT22;684;48.342;10.096;2023-04-19T09:39:04;15.90;15.60
1381;DHT22;684;48.342;10.096;2023-04-19T09:41:31;15.70;15.70
1381;DHT22;684;48.342;10.096;2023-04-19T09:44:08;15.60;16.40
1381;DHT22;684;48.342;10.096;2023-04-19T09:46:36;15.60;16.50
1381;DHT22;684;48.342;10.096;2023-04-19T09:49:16;15.70;16.50
1381;DHT22;684;48.342;10.096;2023-04-19T09:51:46;15.90;15.80
1381;DHT22;684;48.342;10.096;2023-04-19T09:54:15;15.90;16.00
1381;DHT22;684;48.342;10.096;2023-04-19T09:56:42;15.90;15.80
1381;DHT22;684;48.342;10.096;2023-04-19T09:59:10;16.10;15.40
1381;DHT22;684;48.342;10.096;2023-04-19T10:01:38;16.10;15.50
1381;DHT22;684;48.342;10.096;2023-04-19T10:04:06;16.00;15.50
1381;DHT22;684;48.342;10.096;2023-04-19T10:06:35;16.10;15.50
1381;DHT22;684;48.342;10.096;2023-04-19T10:09:04;17.10;15.40
1381;DHT22;684;48.342;10.096;2023-04-19T10:11:32;18.20;12.10
1381;DHT22;684;48.342;10.096;2023-04-19T10:14:04;18.20;11.60
1381;DHT22;684;48.342;10.096;2023-04-19T10:16:32;18.00;12.00
1381;DHT22;684;48.342;10.096;2023-04-19T10:19:00;17.90;12.30
1381;DHT22;684;48.342;10.096;2023-04-19T10:21:27;17.80;12.40
1381;DHT22;684;48.342;10.096;2023-04-19T10:23:56;17.60;12.00
1381;DHT22;684;48.342;10.096;2023-04-19T10:26:25;17.40;12.30
1381;DHT22;684;48.342;10.096;2023-04-19T10:28:54;17.30;12.40
1381;DHT22;684;48.342;10.096;2023-04-19T10:31:21;17.10;12.90
1381;DHT22;684;48.342;10.096;2023-04-19T10:33:51;16.90;13.30
1381;DHT22;684;48.342;10.096;2023-04-19T10:36:18;16.60;13.60
1381;DHT22;684;48.342;10.096;2023-04-19T10:38:46;16.50;13.60
1381;DHT22;684;48.342;10.096;2023-04-19T10:41:14;16.30;13.90
1381;DHT22;684;48.342;10.096;2023-04-19T10:43:45;16.10;14.30
1381;DHT22;684;48.342;10.096;2023-04-19T10:46:14;16.00;14.70
1381;DHT22;684;48.342;10.096;2023-04-19T10:48:52;15.90;15.10
1381;DHT22;684;48.342;10.096;2023-04-19T10:51:21;15.90;15.20
1381;DHT22;684;48.342;10.096;2023-04-19T10:53:53;15.80;15.30
1381;DHT22;684;48.342;10.096;2023-04-19T10:59:14;15.90;15.40
1381;DHT22;684;48.342;10.096;2023-04-19T11:01:52;15.90;15.30
1381;DHT22;684;48.342;10.096;2023-04-19T11:04:21;15.80;15.50
1381;DHT22;684;48.342;10.096;2023-04-19T11:07:02;15.90;15.70
1381;DHT22;684;48.342;10.096;2023-04-19T11:09:31;15.90;15.70
1381;DHT22;684;48.342;10.096;2023-04-19T11:12:00;15.80;15.60
1381;DHT22;684;48.342;10.096;2023-04-19T11:14:31;15.80;15.50
1381;DHT22;684;48.342;10.096;2023-04-19T11:16:59;15.70;15.60
1381;DHT22;684;48.342;10.096;2023-04-19T11:19:26;15.70;15.70
1381;DHT22;684;48.342;10.096;2023-04-19T11:21:57;15.60;15.80
1381;DHT22;684;48.342;10.096;2023-04-19T11:24:24;15.60;15.90
1381;DHT22;684;48.342;10.096;2023-04-19T11:26:51;15.60;16.00
1381;DHT22;684;48.342;10.096;2023-04-19T11:29:20;15.60;16.00
1381;DHT22;684;48.342;10.096;2023-04-19T11:31:48;15.60;16.10
1381;DHT22;684;48.342;10.096;2023-04-19T11:34:15;15.50;16.00
1381;DHT22;684;48.342;10.096;2023-04-19T11:36:48;15.50;16.10
1381;DHT22;684;48.342;10.096;2023-04-19T11:39:15;15.50;16.20
1381;DHT22;684;48.342;10.096;2023-04-19T11:41:41;15.40;16.20
1381;DHT22;684;48.342;10.096;2023-04-19T11:44:15;15.40;16.40
1381;DHT22;684;48.342;10.096;2023-04-19T11:46:41;15.30;16.60
1381;DHT22;684;48.342;10.096;2023-04-19T11:49:24;15.20;16.60
1381;DHT22;684;48.342;10.096;2023-04-19T11:51:55;15.10;16.90
1381;DHT22;684;48.342;10.096;2023-04-19T11:54:22;15.00;17.00
1381;DHT22;684;48.342;10.096;2023-04-19T11:57:03;14.90;17.20
1381;DHT22;684;48.342;10.096;2023-04-19T11:59:30;14.80;17.00
1381;DHT22;684;48.342;10.096;2023-04-19T12:02:07;14.70;17.00
1381;DHT22;684;48.342;10.096;2023-04-19T12:04:36;14.50;17.70
1381;DHT22;684;48.342;10.096;2023-04-19T12:07:04;14.40;18.30
1381;DHT22;684;48.342;10.096;2023-04-19T12:09:32;14.30;19.20
1381;DHT22;684;48.342;10.096;2023-04-19T12:11:59;14.30;19.60
1381;DHT22;684;48.342;10.096;2023-04-19T12:14:26;14.30;19.50
1381;DHT22;684;48.342;10.096;2023-04-19T12:17:07;14.20;20.00
1381;DHT22;684;48.342;10.096;2023-04-19T12:19:37;14.10;19.90
1381;DHT22;684;48.342;10.096;2023-04-19T12:22:08;14.00;20.20
1381;DHT22;684;48.342;10.096;2023-04-19T12:24:36;13.90;20.50
1381;DHT22;684;48.342;10.096;2023-04-19T12:27:03;13.80;20.70
1381;DHT22;684;48.342;10.096;2023-04-19T12:29:30;13.80;21.60
1381;DHT22;684;48.342;10.096;2023-04-19T12:31:57;13.80;21.60
1381;DHT22;684;48.342;10.096;2023-04-19T12:34:23;13.70;21.60
1381;DHT22;684;48.342;10.096;2023-04-19T12:36:51;13.70;22.30
1381;DHT22;684;48.342;10.096;2023-04-19T12:39:18;13.60;22.30
1381;DHT22;684;48.342;10.096;2023-04-19T12:41:45;13.60;22.50
1381;DHT22;684;48.342;10.096;2023-04-19T12:44:13;13.60;22.80
1381;DHT22;684;48.342;10.096;2023-04-19T12:46:40;13.60;22.80
1381;DHT22;684;48.342;10.096;2023-04-19T12:49:06;13.60;22.80
1381;DHT22;684;48.342;10.096;2023-04-19T12:51:33;13.60;23.10
1381;DHT22;684;48.342;10.096;2023-04-19T12:54:02;13.60;23.30
1381;DHT22;684;48.342;10.096;2023-04-19T12:56:28;13.60;23.60
1381;DHT22;684;48.342;10.096;2023-04-19T12:58:55;13.60;24.30
1381;DHT22;684;48.342;10.096;2023-04-19T13:01:22;13.50;24.20
1381;DHT22;684;48.342;10.096;2023-04-19T13:03:49;13.50;24.20
1381;DHT22;684;48.342;10.096;2023-04-19T13:06:15;13.40;24.40
1381;DHT22;684;48.342;10.096;2023-04-19T13:08:42;13.20;25.00
1381;DHT22;684;48.342;10.096;2023-04-19T13:11:11;13.10;25.20
1381;DHT22;684;48.342;10.096;2023-04-19T13:13:37;13.10;25.90
1381;DHT22;684;48.342;10.096;2023-04-19T13:16:05;13.00;26.40
1381;DHT22;684;48.342;10.096;2023-04-19T13:18:32;12.90;27.20
1381;DHT22;684;48.342;10.096;2023-04-19T13:20:58;12.80;27.60
1381;DHT22;684;48.342;10.096;2023-04-19T13:23:25;12.80;28.00
1381;DHT22;684;48.342;10.096;2023-04-19T13:25:52;12.80;28.20
1381;DHT22;684;48.342;10.096;2023-04-19T13:28:20;12.70;28.00
1381;DHT22;684;48.342;10.096;2023-04-19T13:30:47;12.70;28.10
1381;DHT22;684;48.342;10.096;2023-04-19T13:33:13;12.70;28.50
1381;DHT22;684;48.342;10.096;2023-04-19T13:35:40;12.70;28.70
1381;DHT22;684;48.342;10.096;2023-04-19T13:38:09;12.70;29.20
1381;DHT22;684;48.342;10.096;2023-04-19T13:40:36;12.70;30.00
1381;DHT22;684;48.342;10.096;2023-04-19T13:43:02;12.70;29.90
1381;DHT22;684;48.342;10.096;2023-04-19T13:45:30;12.60;27.90
1381;DHT22;684;48.342;10.096;2023-04-19T13:47:57;12.60;28.00
1381;DHT22;684;48.342;10.096;2023-04-19T13:50:24;12.50;28.30
1381;DHT22;684;48.342;10.096;2023-04-19T13:52:51;12.40;28.70
1381;DHT22;684;48.342;10.096;2023-04-19T13:55:17;12.30;29.10
1381;DHT22;684;48.342;10.096;2023-04-19T13:57:44;12.30;29.30
1381;DHT22;684;48.342;10.096;2023-04-19T14:00:12;12.20;29.40
1381;DHT22;684;48.342;10.096;2023-04-19T14:02:40;12.10;29.60
1381;DHT22;684;48.342;10.096;2023-04-19T14:05:08;12.00;29.40
1381;DHT22;684;48.342;10.096;2023-04-19T14:07:38;11.90;28.90
1381;DHT22;684;48.342;10.096;2023-04-19T14:10:09;11.80;28.70
1381;DHT22;684;48.342;10.096;2023-04-19T14:12:36;11.80;28.50
1381;DHT22;684;48.342;10.096;2023-04-19T14:15:03;11.70;28.80
1381;DHT22;684;48.342;10.096;2023-04-19T14:17:30;11.60;28.60
1381;DHT22;684;48.342;10.096;2023-04-19T14:19:58;11.60;29.30
1381;DHT22;684;48.342;10.096;2023-04-19T14:22:25;11.50;29.80
1381;DHT22;684;48.342;10.096;2023-04-19T14:24:51;11.40;29.80
1381;DHT22;684;48.342;10.096;2023-04-19T14:27:18;11.40;29.80
1381;DHT22;684;48.342;10.096;2023-04-19T14:29:45;11.40;29.70
1381;DHT22;684;48.342;10.096;2023-04-19T14:32:12;11.40;29.20
1381;DHT22;684;48.342;10.096;2023-04-19T14:34:39;11.30;29.00
1381;DHT22;684;48.342;10.096;2023-04-19T14:37:07;11.30;29.10
1381;DHT22;684;48.342;10.096;2023-04-19T14:39:34;11.30;29.60
1381;DHT22;684;48.342;10.096;2023-04-19T14:42:01;11.20;29.90
1381;DHT22;684;48.342;10.096;2023-04-19T14:44:27;11.30;29.90
1381;DHT22;684;48.342;10.096;2023-04-19T14:46:54;11.20;30.10
1381;DHT22;684;48.342;10.096;2023-04-19T14:49:21;11.20;30.30
1381;DHT22;684;48.342;10.096;2023-04-19T14:51:48;11.20;30.10
1381;DHT22;684;48.342;10.096;2023-04-19T14:54:16;11.10;30.10
1381;DHT22;684;48.342;10.096;2023-04-19T14:56:43;11.10;30.40
1381;DHT22;684;48.342;10.096;2023-04-19T14:59:09;11.00;30.70
1381;DHT22;684;48.342;10.096;2023-04-19T15:01:36;11.00;30.80
1381;DHT22;684;48.342;10.096;2023-04-19T15:04:03;10.90;30.80
1381;DHT22;684;48.342;10.096;2023-04-19T15:06:29;10.90;30.70
1381;DHT22;684;48.342;10.096;2023-04-19T15:08:56;10.90;30.60
1381;DHT22;684;48.342;10.096;2023-04-19T15:11:25;10.80;30.20
1381;DHT22;684;48.342;10.096;2023-04-19T15:13:51;10.70;30.00
1381;DHT22;684;48.342;10.096;2023-04-19T15:16:18;10.70;30.20
1381;DHT22;684;48.342;10.096;2023-04-19T15:18:45;10.60;30.40
1381;DHT22;684;48.342;10.096;2023-04-19T15:21:12;10.60;30.70
1381;DHT22;684;48.342;10.096;2023-04-19T15:23:40;10.50;31.00
1381;DHT22;684;48.342;10.096;2023-04-19T15:26:07;10.50;31.30
1381;DHT22;684;48.342;10.096;2023-04-19T15:28:35;10.50;31.50
1381;DHT22;684;48.342;10.096;2023-04-19T15:31:04;10.50;31.30
1381;DHT22;684;48.342;10.096;2023-04-19T15:33:32;10.40;31.40
1381;DHT22;684;48.342;10.096;2023-04-19T15:35:59;10.40;31.10
1381;DHT22;684;48.342;10.096;2023-04-19T15:38:27;10.30;30.90
1381;DHT22;684;48.342;10.096;2023-04-19T15:40:56;10.20;30.70
1381;DHT22;684;48.342;10.096;2023-04-19T15:43:23;10.20;30.90
1381;DHT22;684;48.342;10.096;2023-04-19T15:45:52;10.10;31.10
1381;DHT22;684;48.342;10.096;2023-04-19T15:48:19;10.10;31.20
1381;DHT22;684;48.342;10.096;2023-04-19T15:50:46;10.00;30.80
1381;DHT22;684;48.342;10.096;2023-04-19T15:53:13;10.00;30.70
1381;DHT22;684;48.342;10.096;2023-04-19T15:55:40;9.90;31.40
1381;DHT22;684;48.342;10.096;2023-04-19T15:58:07;9.80;31.90
1381;DHT22;684;48.342;10.096;2023-04-19T16:00:34;9.70;31.90
1381;DHT22;684;48.342;10.096;2023-04-19T16:03:03;9.70;32.10
1381;DHT22;684;48.342;10.096;2023-04-19T16:05:30;9.60;32.20
1381;DHT22;684;48.342;10.096;2023-04-19T16:08:00;9.60;32.30
1381;DHT22;684;48.342;10.096;2023-04-19T16:10:28;9.60;32.50